CheckWX is a tool to help pilots better visualize weather data.  It is not intended as a substitute for an official pre-flight weather briefing.

08:00:48 UTC

LRTR TAF
Timişoara Traian Vuia Airport
Timişoara, Romania
TAF LRTR 190500Z 1906/2006 34015KT CAVOK PROB40 TEMPO 1912/1917 FEW030CB SCT040

Mar-19@
06:00 UTC

Mar-19 @ 06:00 UTC

Mar-20@
06:00 UTC

Mar-20 @ 06:00 UTC

TAF LRTR 190500Z 1906/2006 34015KT CAVOK
Wind
  • 340° at 15 KTS
Conditions
No significant weather
Cloud Levels
  • No significant clouds

Mar-19@
12:00 UTC

Mar-19 @ 12:00 UTC

Mar-19@
17:00 UTC

Mar-19 @ 17:00 UTC

PROB40 TEMPO 1912/1917 FEW030CB SCT040

Temporary - 40% Likelihood

Temporary - 40% Likelihood during this time.

Cloud Levels
  • Few at 3,000' AGL
  • Scattered at 4,000' AGL